Rostein — LLHI — position and weather

sailwx.info

Track history (hours):
 
Tides and Currents Weather Stations Pressure Air Temp Water Temp Dewpoint Dewpoint Depression Visibility Wind Speed Wind Dir Waves Ship Positions

Rostein

Last reported at 2014-Dec-19 12:34 UTC. Time now 2014-Dec-20 08:03 UTC.
Position N 70°40' E 023°25'.

Length 57 m; draft 5 m.

Type: Cargo ship. MMSI: 257210000.

Date/timePositionNaut miles runAvg speedWind from/ knotsBaromVisibWave heightAir tempDewpointWater temp
2014-Dec-19 12:34N 70°40' E 023°25'1313.3
2014-Dec-19 11:33N 70°31' E 022°56'90 2.8
2014-Dec-18 03:13N 69°47' E 019°04'  
2014-Dec-14 10:09N 70°27' E 022°15'910.1
2014-Dec-14 09:14N 70°29' E 022°42'7 9.7
2014-Dec-14 08:34N 70°32' E 023°01'10 9.8
2014-Dec-14 07:33N 70°39' E 023°21'9 0.5
2014-Dec-13 12:32N 70°46' E 023°41'5 5.5
2014-Dec-13 11:33N 70°40' E 023°40'0 0.0
2014-Dec-13 10:33N 70°40' E 023°40'0 0.0
2014-Dec-13 09:33N 70°40' E 023°40'10 9.7
2014-Dec-13 08:33N 70°36' E 023°14'21 0.8
2014-Dec-12 04:33N 70°27' E 022°17'10 9.8
2014-Dec-12 03:33N 70°30' E 022°45'9 9.5
2014-Dec-12 02:33N 70°35' E 023°09'10 9.9
2014-Dec-12 01:33N 70°42' E 023°29'4 0.2
2014-Dec-11 06:08N 70°45' E 023°37'712.7
2014-Dec-11 05:33N 70°39' E 023°22'2412.1
2014-Dec-11 03:32N 70°27' E 022°18'81 5.8
2014-Dec-10 13:33N 69°41' E 019°02'3 2.6
2014-Dec-10 12:33N 69°39' E 018°58'0 0.0
2014-Dec-10 11:33N 69°39' E 018°58'0 0.0
2014-Dec-10 10:33N 69°39' E 018°58'0 0.0
2014-Dec-10 09:33N 69°39' E 018°58'0 0.0
2014-Dec-10 08:33N 69°39' E 018°58'0 0.0
2014-Dec-10 07:33N 69°39' E 018°58'  
Track history (hours):
 
Tides and Currents Weather Stations Pressure Air Temp Water Temp Dewpoint Dewpoint Depression Visibility Wind Speed Wind Dir Waves Ship Positions

Rostein

Last reported at 2014-Dec-19 12:34 UTC. Time now 2014-Dec-20 08:03 UTC.
Position N 70°40' E 023°25'.

Length 57 m; draft 5 m.

Type: Cargo ship. MMSI: 257210000.

Date/timePositionNaut miles runAvg speedWind from/ knotsBaromVisibWave heightAir tempDewpointWater temp
2014-Dec-19 12:34N 70°40' E 023°25'1313.3
2014-Dec-19 11:33N 70°31' E 022°56'90 2.8
2014-Dec-18 03:13N 69°47' E 019°04'  
2014-Dec-14 10:09N 70°27' E 022°15'910.1
2014-Dec-14 09:14N 70°29' E 022°42'7 9.7
2014-Dec-14 08:34N 70°32' E 023°01'10 9.8
2014-Dec-14 07:33N 70°39' E 023°21'9 0.5
2014-Dec-13 12:32N 70°46' E 023°41'5 5.5
2014-Dec-13 11:33N 70°40' E 023°40'0 0.0
2014-Dec-13 10:33N 70°40' E 023°40'0 0.0
2014-Dec-13 09:33N 70°40' E 023°40'10 9.7
2014-Dec-13 08:33N 70°36' E 023°14'21 0.8
2014-Dec-12 04:33N 70°27' E 022°17'10 9.8
2014-Dec-12 03:33N 70°30' E 022°45'9 9.5
2014-Dec-12 02:33N 70°35' E 023°09'10 9.9
2014-Dec-12 01:33N 70°42' E 023°29'4 0.2
2014-Dec-11 06:08N 70°45' E 023°37'712.7
2014-Dec-11 05:33N 70°39' E 023°22'2412.1
2014-Dec-11 03:32N 70°27' E 022°18'81 5.8
2014-Dec-10 13:33N 69°41' E 019°02'3 2.6
2014-Dec-10 12:33N 69°39' E 018°58'0 0.0
2014-Dec-10 11:33N 69°39' E 018°58'0 0.0
2014-Dec-10 10:33N 69°39' E 018°58'0 0.0
2014-Dec-10 09:33N 69°39' E 018°58'0 0.0
2014-Dec-10 08:33N 69°39' E 018°58'0 0.0
2014-Dec-10 07:33N 69°39' E 018°58'  

Dump ship's entire track history